sensor_id;sensor_type;location;lat;lon;timestamp;P1;durP1;ratioP1;P2;durP2;ratioP2
6392;SDS011;3229;42.674;23.282;2022-12-20T00:01:39;13.10;;;7.97;;
6392;SDS011;3229;42.674;23.282;2022-12-20T00:04:06;12.00;;;7.63;;
6392;SDS011;3229;42.674;23.282;2022-12-20T00:06:33;11.87;;;7.73;;
6392;SDS011;3229;42.674;23.282;2022-12-20T00:09:01;11.40;;;7.47;;
6392;SDS011;3229;42.674;23.282;2022-12-20T00:11:31;11.80;;;8.07;;
6392;SDS011;3229;42.674;23.282;2022-12-20T00:13:58;9.70;;;7.07;;
6392;SDS011;3229;42.674;23.282;2022-12-20T00:16:26;13.37;;;7.73;;
6392;SDS011;3229;42.674;23.282;2022-12-20T00:18:54;11.60;;;7.70;;
6392;SDS011;3229;42.674;23.282;2022-12-20T00:21:23;9.00;;;6.73;;
6392;SDS011;3229;42.674;23.282;2022-12-20T00:23:52;9.40;;;7.00;;
6392;SDS011;3229;42.674;23.282;2022-12-20T00:26:20;9.00;;;6.80;;
6392;SDS011;3229;42.674;23.282;2022-12-20T00:28:49;12.20;;;7.57;;
6392;SDS011;3229;42.674;23.282;2022-12-20T00:31:17;11.93;;;7.63;;
6392;SDS011;3229;42.674;23.282;2022-12-20T00:33:45;11.90;;;7.23;;
6392;SDS011;3229;42.674;23.282;2022-12-20T00:36:14;9.97;;;6.67;;
6392;SDS011;3229;42.674;23.282;2022-12-20T00:38:43;9.50;;;7.27;;
6392;SDS011;3229;42.674;23.282;2022-12-20T00:41:10;10.23;;;6.63;;
6392;SDS011;3229;42.674;23.282;2022-12-20T00:43:38;10.33;;;6.60;;
6392;SDS011;3229;42.674;23.282;2022-12-20T00:46:08;10.77;;;6.70;;
6392;SDS011;3229;42.674;23.282;2022-12-20T00:48:36;13.33;;;7.37;;
6392;SDS011;3229;42.674;23.282;2022-12-20T00:51:04;10.10;;;6.97;;
6392;SDS011;3229;42.674;23.282;2022-12-20T00:53:32;11.60;;;6.50;;
6392;SDS011;3229;42.674;23.282;2022-12-20T00:56:00;11.17;;;6.93;;
6392;SDS011;3229;42.674;23.282;2022-12-20T00:58:27;10.00;;;6.93;;
6392;SDS011;3229;42.674;23.282;2022-12-20T01:00:54;10.50;;;7.17;;
6392;SDS011;3229;42.674;23.282;2022-12-20T01:03:22;8.40;;;7.03;;
6392;SDS011;3229;42.674;23.282;2022-12-20T01:05:50;12.73;;;7.63;;
6392;SDS011;3229;42.674;23.282;2022-12-20T01:08:18;11.50;;;7.30;;
6392;SDS011;3229;42.674;23.282;2022-12-20T01:10:46;11.63;;;6.90;;
6392;SDS011;3229;42.674;23.282;2022-12-20T01:13:13;11.07;;;7.87;;
6392;SDS011;3229;42.674;23.282;2022-12-20T01:15:39;10.33;;;6.93;;
6392;SDS011;3229;42.674;23.282;2022-12-20T01:18:06;9.97;;;7.10;;
6392;SDS011;3229;42.674;23.282;2022-12-20T01:20:34;12.47;;;7.53;;
6392;SDS011;3229;42.674;23.282;2022-12-20T01:23:01;9.43;;;7.10;;
6392;SDS011;3229;42.674;23.282;2022-12-20T01:25:28;11.40;;;7.53;;
6392;SDS011;3229;42.674;23.282;2022-12-20T01:27:55;10.37;;;7.10;;
6392;SDS011;3229;42.674;23.282;2022-12-20T01:30:22;9.63;;;6.77;;
6392;SDS011;3229;42.674;23.282;2022-12-20T01:32:49;11.10;;;6.67;;
6392;SDS011;3229;42.674;23.282;2022-12-20T01:35:15;10.33;;;7.43;;
6392;SDS011;3229;42.674;23.282;2022-12-20T01:37:44;10.70;;;6.60;;
6392;SDS011;3229;42.674;23.282;2022-12-20T01:40:11;11.77;;;6.80;;
6392;SDS011;3229;42.674;23.282;2022-12-20T01:42:38;10.97;;;7.20;;
6392;SDS011;3229;42.674;23.282;2022-12-20T01:45:07;11.80;;;7.70;;
6392;SDS011;3229;42.674;23.282;2022-12-20T01:47:38;10.23;;;6.77;;
6392;SDS011;3229;42.674;23.282;2022-12-20T01:50:05;8.30;;;6.40;;
6392;SDS011;3229;42.674;23.282;2022-12-20T01:52:34;8.93;;;6.80;;
6392;SDS011;3229;42.674;23.282;2022-12-20T01:55:07;10.13;;;6.73;;
6392;SDS011;3229;42.674;23.282;2022-12-20T01:57:40;9.73;;;7.10;;
6392;SDS011;3229;42.674;23.282;2022-12-20T02:00:11;9.27;;;6.73;;
6392;SDS011;3229;42.674;23.282;2022-12-20T02:02:39;8.90;;;6.43;;
6392;SDS011;3229;42.674;23.282;2022-12-20T02:05:08;9.83;;;6.73;;
6392;SDS011;3229;42.674;23.282;2022-12-20T02:07:35;8.73;;;6.57;;
6392;SDS011;3229;42.674;23.282;2022-12-20T02:10:04;10.37;;;6.13;;
6392;SDS011;3229;42.674;23.282;2022-12-20T02:12:36;8.90;;;6.53;;
6392;SDS011;3229;42.674;23.282;2022-12-20T02:15:13;9.07;;;5.97;;
6392;SDS011;3229;42.674;23.282;2022-12-20T02:17:53;8.73;;;6.37;;
6392;SDS011;3229;42.674;23.282;2022-12-20T02:26:48;11.33;;;6.50;;
6392;SDS011;3229;42.674;23.282;2022-12-20T02:29:55;8.80;;;6.53;;
6392;SDS011;3229;42.674;23.282;2022-12-20T02:32:35;9.27;;;6.57;;
6392;SDS011;3229;42.674;23.282;2022-12-20T02:35:08;11.97;;;6.67;;
6392;SDS011;3229;42.674;23.282;2022-12-20T02:37:45;10.47;;;6.10;;
6392;SDS011;3229;42.674;23.282;2022-12-20T02:40:13;8.83;;;6.30;;
6392;SDS011;3229;42.674;23.282;2022-12-20T02:42:42;9.30;;;6.53;;
6392;SDS011;3229;42.674;23.282;2022-12-20T02:45:12;10.13;;;6.70;;
6392;SDS011;3229;42.674;23.282;2022-12-20T02:47:43;8.93;;;6.50;;
6392;SDS011;3229;42.674;23.282;2022-12-20T02:50:14;9.93;;;6.73;;
6392;SDS011;3229;42.674;23.282;2022-12-20T02:52:45;9.10;;;6.33;;
6392;SDS011;3229;42.674;23.282;2022-12-20T02:55:12;8.17;;;6.27;;
6392;SDS011;3229;42.674;23.282;2022-12-20T02:57:41;10.43;;;6.80;;
6392;SDS011;3229;42.674;23.282;2022-12-20T03:00:13;10.80;;;6.90;;
6392;SDS011;3229;42.674;23.282;2022-12-20T03:02:42;7.67;;;5.90;;
6392;SDS011;3229;42.674;23.282;2022-12-20T03:05:28;8.87;;;6.03;;
6392;SDS011;3229;42.674;23.282;2022-12-20T03:07:58;10.33;;;6.63;;
6392;SDS011;3229;42.674;23.282;2022-12-20T03:10:25;10.83;;;6.70;;
6392;SDS011;3229;42.674;23.282;2022-12-20T03:12:52;9.97;;;6.93;;
6392;SDS011;3229;42.674;23.282;2022-12-20T03:15:20;8.07;;;6.07;;
6392;SDS011;3229;42.674;23.282;2022-12-20T03:17:47;8.83;;;6.20;;
6392;SDS011;3229;42.674;23.282;2022-12-20T03:20:13;8.23;;;6.57;;
6392;SDS011;3229;42.674;23.282;2022-12-20T03:22:40;8.33;;;6.23;;
6392;SDS011;3229;42.674;23.282;2022-12-20T03:25:07;8.10;;;6.27;;
6392;SDS011;3229;42.674;23.282;2022-12-20T03:27:34;10.13;;;6.47;;
6392;SDS011;3229;42.674;23.282;2022-12-20T03:30:01;9.83;;;5.87;;
6392;SDS011;3229;42.674;23.282;2022-12-20T03:32:30;11.67;;;7.10;;
6392;SDS011;3229;42.674;23.282;2022-12-20T03:34:57;9.27;;;6.67;;
6392;SDS011;3229;42.674;23.282;2022-12-20T03:37:24;8.43;;;6.77;;
6392;SDS011;3229;42.674;23.282;2022-12-20T03:39:50;9.53;;;6.57;;
6392;SDS011;3229;42.674;23.282;2022-12-20T03:42:17;8.00;;;6.27;;
6392;SDS011;3229;42.674;23.282;2022-12-20T03:44:44;7.70;;;5.87;;
6392;SDS011;3229;42.674;23.282;2022-12-20T03:47:11;8.67;;;6.57;;
6392;SDS011;3229;42.674;23.282;2022-12-20T03:49:39;10.30;;;6.17;;
6392;SDS011;3229;42.674;23.282;2022-12-20T03:52:06;8.97;;;6.03;;
6392;SDS011;3229;42.674;23.282;2022-12-20T03:54:33;9.20;;;6.07;;
6392;SDS011;3229;42.674;23.282;2022-12-20T03:57:00;8.10;;;6.47;;
6392;SDS011;3229;42.674;23.282;2022-12-20T03:59:26;10.27;;;7.03;;
6392;SDS011;3229;42.674;23.282;2022-12-20T04:01:53;11.23;;;7.57;;
6392;SDS011;3229;42.674;23.282;2022-12-20T04:04:20;8.70;;;6.10;;
6392;SDS011;3229;42.674;23.282;2022-12-20T04:06:48;10.73;;;6.73;;
6392;SDS011;3229;42.674;23.282;2022-12-20T04:09:15;10.83;;;7.30;;
6392;SDS011;3229;42.674;23.282;2022-12-20T04:11:42;10.43;;;6.47;;
6392;SDS011;3229;42.674;23.282;2022-12-20T04:14:08;8.70;;;6.27;;
6392;SDS011;3229;42.674;23.282;2022-12-20T04:16:35;8.30;;;6.50;;
6392;SDS011;3229;42.674;23.282;2022-12-20T04:19:02;9.67;;;7.07;;
6392;SDS011;3229;42.674;23.282;2022-12-20T04:21:30;9.53;;;6.33;;
6392;SDS011;3229;42.674;23.282;2022-12-20T04:24:00;10.53;;;7.00;;
6392;SDS011;3229;42.674;23.282;2022-12-20T04:26:28;10.13;;;7.03;;
6392;SDS011;3229;42.674;23.282;2022-12-20T04:28:55;9.87;;;7.20;;
6392;SDS011;3229;42.674;23.282;2022-12-20T04:31:23;8.70;;;6.47;;
6392;SDS011;3229;42.674;23.282;2022-12-20T04:33:50;10.50;;;7.73;;
6392;SDS011;3229;42.674;23.282;2022-12-20T04:36:17;10.47;;;7.50;;
6392;SDS011;3229;42.674;23.282;2022-12-20T04:38:44;11.20;;;7.30;;
6392;SDS011;3229;42.674;23.282;2022-12-20T04:41:12;10.73;;;7.23;;
6392;SDS011;3229;42.674;23.282;2022-12-20T04:43:47;9.87;;;7.10;;
6392;SDS011;3229;42.674;23.282;2022-12-20T04:46:15;10.53;;;7.30;;
6392;SDS011;3229;42.674;23.282;2022-12-20T04:48:42;8.33;;;6.87;;
6392;SDS011;3229;42.674;23.282;2022-12-20T04:51:08;10.80;;;7.23;;
6392;SDS011;3229;42.674;23.282;2022-12-20T04:53:35;11.53;;;7.53;;
6392;SDS011;3229;42.674;23.282;2022-12-20T04:56:18;12.30;;;7.30;;
6392;SDS011;3229;42.674;23.282;2022-12-20T04:58:47;9.43;;;7.20;;
6392;SDS011;3229;42.674;23.282;2022-12-20T05:01:16;12.30;;;7.90;;
6392;SDS011;3229;42.674;23.282;2022-12-20T05:03:44;10.00;;;7.40;;
6392;SDS011;3229;42.674;23.282;2022-12-20T05:06:11;11.60;;;7.27;;
6392;SDS011;3229;42.674;23.282;2022-12-20T05:08:38;10.27;;;7.03;;
6392;SDS011;3229;42.674;23.282;2022-12-20T05:11:05;10.20;;;7.63;;
6392;SDS011;3229;42.674;23.282;2022-12-20T05:13:33;10.40;;;7.63;;
6392;SDS011;3229;42.674;23.282;2022-12-20T05:16:00;10.10;;;7.30;;
6392;SDS011;3229;42.674;23.282;2022-12-20T05:18:28;10.03;;;7.63;;
6392;SDS011;3229;42.674;23.282;2022-12-20T05:20:55;11.43;;;7.27;;
6392;SDS011;3229;42.674;23.282;2022-12-20T05:23:39;11.50;;;6.70;;
6392;SDS011;3229;42.674;23.282;2022-12-20T05:26:24;11.50;;;7.20;;
6392;SDS011;3229;42.674;23.282;2022-12-20T05:28:53;11.27;;;7.03;;
6392;SDS011;3229;42.674;23.282;2022-12-20T05:31:20;10.27;;;7.10;;
6392;SDS011;3229;42.674;23.282;2022-12-20T05:33:47;11.50;;;7.90;;
6392;SDS011;3229;42.674;23.282;2022-12-20T05:36:13;15.27;;;8.60;;
6392;SDS011;3229;42.674;23.282;2022-12-20T05:38:40;10.10;;;7.43;;
6392;SDS011;3229;42.674;23.282;2022-12-20T05:41:07;11.43;;;7.00;;
6392;SDS011;3229;42.674;23.282;2022-12-20T05:43:34;11.27;;;7.23;;
6392;SDS011;3229;42.674;23.282;2022-12-20T05:46:02;9.37;;;7.50;;
6392;SDS011;3229;42.674;23.282;2022-12-20T05:48:29;11.13;;;7.37;;
6392;SDS011;3229;42.674;23.282;2022-12-20T05:50:56;10.67;;;6.00;;
6392;SDS011;3229;42.674;23.282;2022-12-20T05:53:23;13.53;;;6.47;;
6392;SDS011;3229;42.674;23.282;2022-12-20T05:55:51;8.33;;;5.97;;
6392;SDS011;3229;42.674;23.282;2022-12-20T05:58:18;8.33;;;6.27;;
6392;SDS011;3229;42.674;23.282;2022-12-20T06:00:45;7.83;;;5.93;;
6392;SDS011;3229;42.674;23.282;2022-12-20T06:03:14;7.97;;;6.30;;
6392;SDS011;3229;42.674;23.282;2022-12-20T06:05:41;12.73;;;7.27;;
6392;SDS011;3229;42.674;23.282;2022-12-20T06:08:09;11.20;;;6.43;;
6392;SDS011;3229;42.674;23.282;2022-12-20T06:10:38;8.40;;;6.30;;
6392;SDS011;3229;42.674;23.282;2022-12-20T06:13:06;10.47;;;7.50;;
6392;SDS011;3229;42.674;23.282;2022-12-20T06:15:33;9.93;;;7.00;;
6392;SDS011;3229;42.674;23.282;2022-12-20T06:18:00;11.67;;;6.97;;
6392;SDS011;3229;42.674;23.282;2022-12-20T06:20:29;10.03;;;7.53;;
6392;SDS011;3229;42.674;23.282;2022-12-20T06:22:56;10.13;;;6.70;;
6392;SDS011;3229;42.674;23.282;2022-12-20T06:25:22;13.70;;;8.23;;
6392;SDS011;3229;42.674;23.282;2022-12-20T06:27:49;10.60;;;7.70;;
6392;SDS011;3229;42.674;23.282;2022-12-20T06:30:17;11.30;;;7.97;;
6392;SDS011;3229;42.674;23.282;2022-12-20T06:32:44;14.80;;;8.10;;
6392;SDS011;3229;42.674;23.282;2022-12-20T06:35:11;14.37;;;7.03;;
6392;SDS011;3229;42.674;23.282;2022-12-20T06:37:40;10.83;;;7.73;;
6392;SDS011;3229;42.674;23.282;2022-12-20T06:40:07;10.50;;;7.47;;
6392;SDS011;3229;42.674;23.282;2022-12-20T06:42:35;12.03;;;8.20;;
6392;SDS011;3229;42.674;23.282;2022-12-20T06:45:02;10.43;;;7.53;;
6392;SDS011;3229;42.674;23.282;2022-12-20T06:47:30;9.20;;;7.60;;
6392;SDS011;3229;42.674;23.282;2022-12-20T06:49:57;12.63;;;7.90;;
6392;SDS011;3229;42.674;23.282;2022-12-20T06:52:24;11.87;;;7.57;;
6392;SDS011;3229;42.674;23.282;2022-12-20T06:54:52;15.23;;;6.97;;
6392;SDS011;3229;42.674;23.282;2022-12-20T06:57:19;11.77;;;7.27;;
6392;SDS011;3229;42.674;23.282;2022-12-20T06:59:46;8.50;;;6.43;;
6392;SDS011;3229;42.674;23.282;2022-12-20T07:02:13;11.13;;;6.37;;
6392;SDS011;3229;42.674;23.282;2022-12-20T07:04:39;10.97;;;7.20;;
6392;SDS011;3229;42.674;23.282;2022-12-20T07:07:06;10.67;;;7.57;;
6392;SDS011;3229;42.674;23.282;2022-12-20T07:09:33;7.27;;;5.73;;
6392;SDS011;3229;42.674;23.282;2022-12-20T07:12:03;8.20;;;6.63;;
6392;SDS011;3229;42.674;23.282;2022-12-20T07:14:30;9.43;;;6.57;;
6392;SDS011;3229;42.674;23.282;2022-12-20T07:16:57;10.47;;;6.90;;
6392;SDS011;3229;42.674;23.282;2022-12-20T07:19:24;11.63;;;6.57;;
6392;SDS011;3229;42.674;23.282;2022-12-20T07:21:50;12.87;;;7.87;;
6392;SDS011;3229;42.674;23.282;2022-12-20T07:24:17;7.73;;;6.50;;
6392;SDS011;3229;42.674;23.282;2022-12-20T07:26:44;9.50;;;6.67;;
6392;SDS011;3229;42.674;23.282;2022-12-20T07:29:12;11.43;;;6.53;;
6392;SDS011;3229;42.674;23.282;2022-12-20T07:31:39;9.03;;;6.63;;
6392;SDS011;3229;42.674;23.282;2022-12-20T07:34:06;9.10;;;6.33;;
6392;SDS011;3229;42.674;23.282;2022-12-20T07:36:33;9.23;;;6.73;;
6392;SDS011;3229;42.674;23.282;2022-12-20T07:39:00;8.17;;;6.93;;
6392;SDS011;3229;42.674;23.282;2022-12-20T07:41:26;9.40;;;6.67;;
6392;SDS011;3229;42.674;23.282;2022-12-20T07:43:53;9.53;;;7.50;;
6392;SDS011;3229;42.674;23.282;2022-12-20T07:46:23;8.47;;;6.77;;
6392;SDS011;3229;42.674;23.282;2022-12-20T07:48:50;10.93;;;6.87;;
6392;SDS011;3229;42.674;23.282;2022-12-20T07:51:18;9.47;;;6.70;;
6392;SDS011;3229;42.674;23.282;2022-12-20T07:53:49;10.20;;;7.13;;
6392;SDS011;3229;42.674;23.282;2022-12-20T07:56:19;10.27;;;6.83;;
6392;SDS011;3229;42.674;23.282;2022-12-20T07:58:47;9.93;;;7.00;;
6392;SDS011;3229;42.674;23.282;2022-12-20T08:01:16;14.00;;;7.73;;
6392;SDS011;3229;42.674;23.282;2022-12-20T08:03:48;8.93;;;7.10;;
6392;SDS011;3229;42.674;23.282;2022-12-20T08:06:18;9.80;;;7.23;;
6392;SDS011;3229;42.674;23.282;2022-12-20T08:08:46;9.00;;;7.10;;
6392;SDS011;3229;42.674;23.282;2022-12-20T08:11:16;10.90;;;7.40;;
6392;SDS011;3229;42.674;23.282;2022-12-20T08:13:46;12.70;;;6.70;;
6392;SDS011;3229;42.674;23.282;2022-12-20T08:16:14;10.90;;;7.63;;
6392;SDS011;3229;42.674;23.282;2022-12-20T08:18:41;9.47;;;6.43;;
6392;SDS011;3229;42.674;23.282;2022-12-20T08:21:09;10.77;;;7.17;;
6392;SDS011;3229;42.674;23.282;2022-12-20T08:23:37;11.33;;;7.77;;
6392;SDS011;3229;42.674;23.282;2022-12-20T08:26:04;8.73;;;6.77;;
6392;SDS011;3229;42.674;23.282;2022-12-20T08:28:31;9.23;;;6.90;;
6392;SDS011;3229;42.674;23.282;2022-12-20T08:31:01;9.20;;;6.70;;
6392;SDS011;3229;42.674;23.282;2022-12-20T08:33:28;14.23;;;7.67;;
6392;SDS011;3229;42.674;23.282;2022-12-20T08:35:56;9.87;;;6.90;;
6392;SDS011;3229;42.674;23.282;2022-12-20T08:38:26;9.90;;;7.27;;
6392;SDS011;3229;42.674;23.282;2022-12-20T08:40:53;11.60;;;7.70;;
6392;SDS011;3229;42.674;23.282;2022-12-20T08:43:20;9.33;;;7.13;;
6392;SDS011;3229;42.674;23.282;2022-12-20T08:45:50;14.27;;;7.53;;
6392;SDS011;3229;42.674;23.282;2022-12-20T08:48:18;13.30;;;7.43;;
6392;SDS011;3229;42.674;23.282;2022-12-20T08:50:45;10.07;;;7.70;;
6392;SDS011;3229;42.674;23.282;2022-12-20T08:53:12;10.07;;;7.10;;
6392;SDS011;3229;42.674;23.282;2022-12-20T08:55:40;9.50;;;7.57;;
6392;SDS011;3229;42.674;23.282;2022-12-20T08:58:07;12.10;;;7.30;;
6392;SDS011;3229;42.674;23.282;2022-12-20T09:00:34;12.20;;;7.63;;
6392;SDS011;3229;42.674;23.282;2022-12-20T09:03:01;10.83;;;7.57;;
6392;SDS011;3229;42.674;23.282;2022-12-20T09:05:28;9.50;;;7.17;;
6392;SDS011;3229;42.674;23.282;2022-12-20T09:07:55;9.57;;;7.47;;
6392;SDS011;3229;42.674;23.282;2022-12-20T09:10:21;8.67;;;6.93;;
6392;SDS011;3229;42.674;23.282;2022-12-20T09:12:49;11.47;;;7.53;;
6392;SDS011;3229;42.674;23.282;2022-12-20T09:15:16;10.63;;;7.17;;
6392;SDS011;3229;42.674;23.282;2022-12-20T09:17:43;9.67;;;7.30;;
6392;SDS011;3229;42.674;23.282;2022-12-20T09:20:11;9.80;;;6.87;;
6392;SDS011;3229;42.674;23.282;2022-12-20T09:22:39;11.10;;;8.03;;
6392;SDS011;3229;42.674;23.282;2022-12-20T09:25:06;10.00;;;7.83;;
6392;SDS011;3229;42.674;23.282;2022-12-20T09:27:34;9.20;;;6.03;;
6392;SDS011;3229;42.674;23.282;2022-12-20T09:30:02;10.83;;;6.70;;
6392;SDS011;3229;42.674;23.282;2022-12-20T09:32:29;10.60;;;7.47;;
6392;SDS011;3229;42.674;23.282;2022-12-20T09:34:56;10.73;;;7.13;;
6392;SDS011;3229;42.674;23.282;2022-12-20T09:37:23;11.30;;;7.43;;
6392;SDS011;3229;42.674;23.282;2022-12-20T09:39:49;9.50;;;6.80;;
6392;SDS011;3229;42.674;23.282;2022-12-20T09:42:17;10.73;;;7.17;;
6392;SDS011;3229;42.674;23.282;2022-12-20T09:44:49;19.47;;;8.37;;
6392;SDS011;3229;42.674;23.282;2022-12-20T09:47:18;9.87;;;7.70;;
6392;SDS011;3229;42.674;23.282;2022-12-20T09:49:49;9.70;;;6.73;;
6392;SDS011;3229;42.674;23.282;2022-12-20T09:52:27;9.40;;;7.40;;
6392;SDS011;3229;42.674;23.282;2022-12-20T09:55:06;8.17;;;6.90;;
6392;SDS011;3229;42.674;23.282;2022-12-20T09:57:46;11.23;;;7.03;;
6392;SDS011;3229;42.674;23.282;2022-12-20T10:00:23;11.77;;;6.87;;
6392;SDS011;3229;42.674;23.282;2022-12-20T10:02:52;9.47;;;6.97;;
6392;SDS011;3229;42.674;23.282;2022-12-20T10:05:21;10.57;;;6.77;;
6392;SDS011;3229;42.674;23.282;2022-12-20T10:07:58;10.10;;;6.67;;
6392;SDS011;3229;42.674;23.282;2022-12-20T10:10:36;10.90;;;7.10;;
6392;SDS011;3229;42.674;23.282;2022-12-20T10:13:34;11.30;;;7.20;;
6392;SDS011;3229;42.674;23.282;2022-12-20T10:16:14;8.73;;;6.53;;
6392;SDS011;3229;42.674;23.282;2022-12-20T10:19:01;8.83;;;6.83;;
6392;SDS011;3229;42.674;23.282;2022-12-20T10:21:42;9.03;;;6.83;;
6392;SDS011;3229;42.674;23.282;2022-12-20T10:24:15;10.17;;;6.83;;
6392;SDS011;3229;42.674;23.282;2022-12-20T10:26:44;8.17;;;6.50;;
6392;SDS011;3229;42.674;23.282;2022-12-20T10:29:14;12.40;;;7.23;;
6392;SDS011;3229;42.674;23.282;2022-12-20T10:31:41;12.43;;;6.87;;
6392;SDS011;3229;42.674;23.282;2022-12-20T10:34:09;10.33;;;7.30;;
6392;SDS011;3229;42.674;23.282;2022-12-20T10:36:36;9.10;;;6.80;;
6392;SDS011;3229;42.674;23.282;2022-12-20T10:39:04;9.73;;;7.07;;
6392;SDS011;3229;42.674;23.282;2022-12-20T10:41:33;10.33;;;7.00;;
6392;SDS011;3229;42.674;23.282;2022-12-20T10:44:15;10.87;;;6.83;;
6392;SDS011;3229;42.674;23.282;2022-12-20T10:46:46;10.00;;;7.10;;
6392;SDS011;3229;42.674;23.282;2022-12-20T10:49:27;9.17;;;6.73;;
6392;SDS011;3229;42.674;23.282;2022-12-20T10:51:56;11.47;;;6.77;;
6392;SDS011;3229;42.674;23.282;2022-12-20T10:54:28;8.07;;;6.63;;
6392;SDS011;3229;42.674;23.282;2022-12-20T10:56:56;10.00;;;7.00;;
6392;SDS011;3229;42.674;23.282;2022-12-20T10:59:28;13.40;;;7.07;;
6392;SDS011;3229;42.674;23.282;2022-12-20T11:01:59;8.30;;;6.67;;
6392;SDS011;3229;42.674;23.282;2022-12-20T11:04:28;9.93;;;6.90;;
6392;SDS011;3229;42.674;23.282;2022-12-20T11:06:56;9.37;;;6.90;;
6392;SDS011;3229;42.674;23.282;2022-12-20T11:09:28;10.73;;;7.10;;
6392;SDS011;3229;42.674;23.282;2022-12-20T11:11:57;10.07;;;7.23;;
6392;SDS011;3229;42.674;23.282;2022-12-20T11:14:26;9.37;;;7.17;;
6392;SDS011;3229;42.674;23.282;2022-12-20T11:16:53;9.40;;;6.70;;
6392;SDS011;3229;42.674;23.282;2022-12-20T11:19:30;11.60;;;7.13;;
6392;SDS011;3229;42.674;23.282;2022-12-20T11:22:21;9.57;;;7.07;;
6392;SDS011;3229;42.674;23.282;2022-12-20T11:25:00;10.90;;;6.93;;
6392;SDS011;3229;42.674;23.282;2022-12-20T11:27:46;10.37;;;7.20;;
6392;SDS011;3229;42.674;23.282;2022-12-20T11:30:18;9.07;;;6.13;;
6392;SDS011;3229;42.674;23.282;2022-12-20T11:32:56;8.73;;;6.13;;
6392;SDS011;3229;42.674;23.282;2022-12-20T11:35:39;10.07;;;6.47;;
6392;SDS011;3229;42.674;23.282;2022-12-20T11:38:17;10.73;;;7.33;;
6392;SDS011;3229;42.674;23.282;2022-12-20T11:40:54;9.67;;;6.80;;
6392;SDS011;3229;42.674;23.282;2022-12-20T11:43:43;9.93;;;6.27;;
6392;SDS011;3229;42.674;23.282;2022-12-20T11:46:19;7.70;;;6.63;;
6392;SDS011;3229;42.674;23.282;2022-12-20T11:49:03;10.20;;;6.83;;
6392;SDS011;3229;42.674;23.282;2022-12-20T11:51:45;9.37;;;6.40;;
6392;SDS011;3229;42.674;23.282;2022-12-20T11:54:16;9.93;;;6.40;;
6392;SDS011;3229;42.674;23.282;2022-12-20T11:56:49;10.13;;;6.60;;
6392;SDS011;3229;42.674;23.282;2022-12-20T11:59:29;9.17;;;6.07;;
6392;SDS011;3229;42.674;23.282;2022-12-20T12:02:02;9.13;;;6.17;;
6392;SDS011;3229;42.674;23.282;2022-12-20T12:04:37;8.77;;;6.00;;
6392;SDS011;3229;42.674;23.282;2022-12-20T12:07:14;8.23;;;5.97;;
6392;SDS011;3229;42.674;23.282;2022-12-20T12:09:47;7.43;;;6.10;;
6392;SDS011;3229;42.674;23.282;2022-12-20T12:12:22;9.87;;;6.77;;
6392;SDS011;3229;42.674;23.282;2022-12-20T12:14:53;10.67;;;6.97;;
6392;SDS011;3229;42.674;23.282;2022-12-20T12:17:27;10.17;;;6.47;;
6392;SDS011;3229;42.674;23.282;2022-12-20T12:20:03;8.00;;;6.20;;
6392;SDS011;3229;42.674;23.282;2022-12-20T12:22:47;8.47;;;7.03;;
6392;SDS011;3229;42.674;23.282;2022-12-20T12:25:16;7.70;;;5.70;;
6392;SDS011;3229;42.674;23.282;2022-12-20T12:27:43;7.83;;;6.27;;
6392;SDS011;3229;42.674;23.282;2022-12-20T12:30:11;9.80;;;6.70;;
6392;SDS011;3229;42.674;23.282;2022-12-20T12:32:40;8.37;;;6.63;;
6392;SDS011;3229;42.674;23.282;2022-12-20T12:35:22;9.97;;;7.10;;
6392;SDS011;3229;42.674;23.282;2022-12-20T12:38:14;10.23;;;6.87;;
6392;SDS011;3229;42.674;23.282;2022-12-20T12:43:49;10.73;;;6.67;;
6392;SDS011;3229;42.674;23.282;2022-12-20T12:46:20;9.50;;;7.00;;
6392;SDS011;3229;42.674;23.282;2022-12-20T12:48:52;9.40;;;6.77;;
6392;SDS011;3229;42.674;23.282;2022-12-20T12:51:24;11.13;;;7.20;;
6392;SDS011;3229;42.674;23.282;2022-12-20T12:54:02;10.63;;;7.10;;
6392;SDS011;3229;42.674;23.282;2022-12-20T12:56:43;10.67;;;6.70;;
6392;SDS011;3229;42.674;23.282;2022-12-20T13:02:24;10.77;;;7.20;;
6392;SDS011;3229;42.674;23.282;2022-12-20T13:08:08;14.00;;;7.20;;
6392;SDS011;3229;42.674;23.282;2022-12-20T13:13:38;11.17;;;7.40;;
6392;SDS011;3229;42.674;23.282;2022-12-20T13:16:25;10.67;;;7.23;;
6392;SDS011;3229;42.674;23.282;2022-12-20T13:21:43;10.13;;;6.40;;
6392;SDS011;3229;42.674;23.282;2022-12-20T13:27:25;10.13;;;6.77;;
6392;SDS011;3229;42.674;23.282;2022-12-20T13:29:59;9.20;;;6.77;;
6392;SDS011;3229;42.674;23.282;2022-12-20T13:32:57;10.03;;;6.77;;
6392;SDS011;3229;42.674;23.282;2022-12-20T13:35:30;12.93;;;6.87;;
6392;SDS011;3229;42.674;23.282;2022-12-20T13:41:18;10.50;;;6.13;;
6392;SDS011;3229;42.674;23.282;2022-12-20T13:43:54;8.57;;;6.77;;
6392;SDS011;3229;42.674;23.282;2022-12-20T13:46:24;9.13;;;6.70;;
6392;SDS011;3229;42.674;23.282;2022-12-20T13:48:56;8.93;;;6.40;;
6392;SDS011;3229;42.674;23.282;2022-12-20T13:51:27;11.87;;;6.90;;
6392;SDS011;3229;42.674;23.282;2022-12-20T13:53:55;9.23;;;6.43;;
6392;SDS011;3229;42.674;23.282;2022-12-20T13:56:30;9.63;;;6.03;;
6392;SDS011;3229;42.674;23.282;2022-12-20T13:59:06;7.53;;;5.83;;
6392;SDS011;3229;42.674;23.282;2022-12-20T14:01:45;12.40;;;6.40;;
6392;SDS011;3229;42.674;23.282;2022-12-20T14:04:14;13.37;;;6.83;;
6392;SDS011;3229;42.674;23.282;2022-12-20T14:06:43;9.93;;;7.13;;
6392;SDS011;3229;42.674;23.282;2022-12-20T14:09:27;9.87;;;6.77;;
6392;SDS011;3229;42.674;23.282;2022-12-20T14:12:02;11.20;;;6.87;;
6392;SDS011;3229;42.674;23.282;2022-12-20T14:14:36;8.73;;;6.47;;
6392;SDS011;3229;42.674;23.282;2022-12-20T14:17:16;11.93;;;7.27;;
6392;SDS011;3229;42.674;23.282;2022-12-20T14:19:56;10.70;;;6.63;;
6392;SDS011;3229;42.674;23.282;2022-12-20T14:22:28;7.70;;;6.33;;
6392;SDS011;3229;42.674;23.282;2022-12-20T14:24:56;7.73;;;6.47;;
6392;SDS011;3229;42.674;23.282;2022-12-20T14:27:23;10.40;;;6.33;;
6392;SDS011;3229;42.674;23.282;2022-12-20T14:29:56;8.40;;;5.93;;
6392;SDS011;3229;42.674;23.282;2022-12-20T14:32:24;4.97;;;4.10;;
6392;SDS011;3229;42.674;23.282;2022-12-20T14:34:51;5.60;;;4.20;;
6392;SDS011;3229;42.674;23.282;2022-12-20T14:37:29;5.37;;;4.20;;
6392;SDS011;3229;42.674;23.282;2022-12-20T14:39:58;7.23;;;4.10;;
6392;SDS011;3229;42.674;23.282;2022-12-20T14:42:28;5.57;;;4.03;;
6392;SDS011;3229;42.674;23.282;2022-12-20T14:45:05;5.83;;;4.63;;
6392;SDS011;3229;42.674;23.282;2022-12-20T14:47:46;7.07;;;4.40;;
6392;SDS011;3229;42.674;23.282;2022-12-20T14:50:16;7.23;;;5.03;;
6392;SDS011;3229;42.674;23.282;2022-12-20T14:52:45;6.80;;;5.27;;
6392;SDS011;3229;42.674;23.282;2022-12-20T14:55:13;6.93;;;5.43;;
6392;SDS011;3229;42.674;23.282;2022-12-20T14:57:45;11.23;;;5.67;;
6392;SDS011;3229;42.674;23.282;2022-12-20T15:00:20;7.47;;;5.60;;
6392;SDS011;3229;42.674;23.282;2022-12-20T15:02:50;6.93;;;5.67;;
6392;SDS011;3229;42.674;23.282;2022-12-20T15:05:45;8.63;;;5.70;;
6392;SDS011;3229;42.674;23.282;2022-12-20T15:08:16;9.03;;;6.07;;
6392;SDS011;3229;42.674;23.282;2022-12-20T15:10:55;9.60;;;6.37;;
6392;SDS011;3229;42.674;23.282;2022-12-20T15:13:26;8.03;;;5.93;;
6392;SDS011;3229;42.674;23.282;2022-12-20T15:15:58;7.83;;;5.67;;
6392;SDS011;3229;42.674;23.282;2022-12-20T15:18:28;10.60;;;5.90;;
6392;SDS011;3229;42.674;23.282;2022-12-20T15:20:59;7.97;;;5.90;;
6392;SDS011;3229;42.674;23.282;2022-12-20T15:23:30;9.07;;;5.77;;
6392;SDS011;3229;42.674;23.282;2022-12-20T15:25:57;8.63;;;5.73;;
6392;SDS011;3229;42.674;23.282;2022-12-20T15:28:24;6.93;;;5.50;;
6392;SDS011;3229;42.674;23.282;2022-12-20T15:30:52;9.63;;;5.83;;
6392;SDS011;3229;42.674;23.282;2022-12-20T15:33:21;8.70;;;5.40;;
6392;SDS011;3229;42.674;23.282;2022-12-20T15:35:50;9.43;;;6.70;;
6392;SDS011;3229;42.674;23.282;2022-12-20T15:38:18;6.97;;;5.60;;
6392;SDS011;3229;42.674;23.282;2022-12-20T15:40:47;7.27;;;5.13;;
6392;SDS011;3229;42.674;23.282;2022-12-20T15:43:18;9.03;;;5.43;;